Portada
METAR-TAF:

METAR-TAF

Aeropuertos :

Crestview, Florida, Estados Unidos

latitud: 30-46-20N, longitud: 086-31-12W, altitud: 65 m

Observación

El informe se hizo hace 22 minutos, a las 18:53 UTC
Viento 7 kt del norte
Temperatura 14°C
Humedad 72%
Presión 1015 hPa
Visibilidad: 16.1 km
Cielo cubierto a una altura de 1700 ft

METAR: KCEW 271853Z AUTO 35007KT 10SM OVC017 14/09 A2997 RMK AO2 SLP149 T01390094

Hora: 13:15 (19:15 UTC)


TAF: falta

Observaciones y pronósticos meteorológicos de más de 4000 aeropuertos (mensajes METAR y TAF).

Los puntos amarillos y rojos representan las estaciones disponibles.

Ponga el ratón en el punto deseado para ver el nombre de la estación.

Haga clic para ver las observaciones y los pronósticos meteorológicos.

Para cambiar el mapa : haga clic en los botones verdes con una cruz de color negro para hacer un zoom, en el botón verde con un guión para alejar o en las flechas verdes para mapas adyacentes.


METAR-TAF: